METAR Data
IDs: Format: Raw Decoded Include TAF

Data at: 1002 UTC 18 Jan 2022

KMNH 180955Z AUTO 19007KT 10SM CLR 00/M08 A2988 RMK AO2
KMNH 180935Z AUTO 18008KT 10SM CLR M01/M09 A2989 RMK AO2
KMNH 180915Z AUTO 19008KT 10SM CLR 00/M09 A2989 RMK AO2
KMNH 180855Z AUTO 19008KT 10SM CLR 00/M09 A2989 RMK AO2
KMNH 180835Z AUTO 19006KT 10SM CLR 00/M09 A2989 RMK AO2
KMNH 180815Z AUTO 20006KT 10SM CLR 01/M10 A2990 RMK AO2
KMNH 180755Z AUTO 20007KT 10SM CLR 01/M10 A2990 RMK AO2
KMNH 180735Z AUTO 20007KT 10SM CLR 01/M10 A2990 RMK AO2
KMNH 180715Z AUTO 20006KT 10SM CLR 01/M10 A2991 RMK AO2
KMNH 180655Z AUTO 20007KT 10SM CLR 01/M10 A2992 RMK AO2
KMNH 180635Z AUTO 20007KT 10SM CLR 01/M10 A2993 RMK AO2
KMNH 180615Z AUTO 20008KT 10SM CLR 01/M10 A2993 RMK AO2
KMNH 180555Z AUTO 19007KT 10SM CLR 00/M09 A2993 RMK AO2
KMNH 180535Z AUTO 18008KT 10SM CLR 00/M09 A2993 RMK AO2
KMNH 180515Z AUTO 18009KT 10SM CLR 00/M09 A2993 RMK AO2
KMNH 180455Z AUTO 18010KT 10SM CLR 01/M10 A2993 RMK AO2
KMNH 180435Z AUTO 19009KT 10SM CLR 01/M09 A2994 RMK AO2
KMNH 180415Z AUTO 19011KT 10SM CLR 01/M09 A2995 RMK AO2
KMNH 180355Z AUTO 19008KT 10SM CLR 01/M09 A2995 RMK AO2
KMNH 180335Z AUTO 18010KT 10SM CLR 00/M08 A2995 RMK AO2
KMNH 180315Z AUTO 18010KT 10SM CLR 00/M08 A2995 RMK AO2
KMNH 180255Z AUTO 18008KT 10SM CLR 00/M08 A2996 RMK AO2
KMNH 180235Z AUTO 20006KT 10SM CLR 01/M08 A2996 RMK AO2
KMNH 180215Z AUTO 22005KT 10SM CLR 00/M08 A2996 RMK AO2
KMNH 180155Z AUTO 17005KT 10SM CLR 02/M09 A2996 RMK AO2
KMNH 180135Z AUTO 19005KT 10SM CLR 02/M09 A2996 RMK AO2
KMNH 180115Z AUTO 18005KT 10SM CLR 03/M09 A2996 RMK AO2
KMNH 180055Z AUTO 16003KT 10SM CLR 06/M10 A2996 RMK AO2
KMNH 180035Z AUTO 32004KT 10SM CLR 04/M10 A2995 RMK AO2
KMNH 180015Z AUTO 18005KT 10SM CLR 05/M09 A2994 RMK AO2
KMNH 172355Z AUTO 19006KT 10SM CLR 06/M08 A2994 RMK AO2
KMNH 172335Z AUTO 19006KT 10SM CLR 07/M08 A2994 RMK AO2
KMNH 172315Z AUTO 19003KT 10SM CLR 08/M08 A2994 RMK AO2
KMNH 172255Z AUTO 15004KT 10SM CLR 10/M09 A2994 RMK AO2
KMNH 172235Z AUTO 16005KT 10SM CLR 10/M10 A2995 RMK AO2
KMNH 172215Z AUTO 14004KT 10SM CLR 11/M11 A2995 RMK AO2
KMNH 172155Z AUTO 14009KT 10SM CLR 12/M12 A2995 RMK AO2
KMNH 172135Z AUTO 14008KT 10SM CLR 12/M11 A2995 RMK AO2
KMNH 172115Z AUTO 14008KT 10SM CLR 11/M10 A2994 RMK AO2
KMNH 172055Z AUTO 15008KT 10SM CLR 11/M11 A2994 RMK AO2
KMNH 172035Z AUTO 14005KT 10SM CLR 12/M11 A2994 RMK AO2
KMNH 172015Z AUTO 16007KT 10SM CLR 12/M11 A2995 RMK AO2
KMNH 171955Z AUTO 11006KT 10SM CLR 12/M12 A2996 RMK AO2
KMNH 171935Z AUTO 08004KT 10SM CLR 12/M12 A2999 RMK AO2
KMNH 171915Z AUTO 09004KT 10SM CLR 12/M12 A2998 RMK AO2
KMNH 171855Z AUTO 00000KT 10SM CLR 12/M13 A2999 RMK AO2
KMNH 171835Z AUTO 08003KT 10SM CLR 11/M13 A3001 RMK AO2
KMNH 171815Z AUTO 11004KT 10SM CLR 11/M12 A3001 RMK AO2
KMNH 171755Z AUTO 00000KT 10SM CLR 11/M11 A3002 RMK AO2
KMNH 171735Z AUTO 00000KT 10SM CLR 11/M12 A3002 RMK AO2
KMNH 171715Z AUTO 00000KT 10SM CLR 10/M11 A3003 RMK AO2
KMNH 171655Z AUTO 22003KT 10SM CLR 08/M10 A3002 RMK AO2
KMNH 171635Z AUTO 21005KT 10SM CLR 07/M10 A3002 RMK AO2
KMNH 171615Z AUTO 19004KT 10SM CLR 06/M09 A3003 RMK AO2
KMNH 171555Z AUTO 21008KT 10SM CLR 05/M10 A3003 RMK AO2
KMNH 171535Z AUTO 20008KT 10SM CLR 03/M11 A3002 RMK AO2
KMNH 171515Z AUTO 20008KT 10SM CLR 00/M11 A3002 RMK AO2
KMNH 171455Z AUTO 21007KT 10SM CLR M01/M11 A3001 RMK AO2
KMNH 171435Z AUTO 20008KT 10SM CLR M02/M12 A3001 RMK AO2
KMNH 171415Z AUTO 22009KT 10SM CLR 00/M12 A3001 RMK AO2
KMNH 171355Z AUTO 20009KT 10SM CLR M02/M12 A3001 RMK AO2
KMNH 171335Z AUTO 20008KT 10SM CLR 00/M12 A3001 RMK AO2
KMNH 171315Z AUTO 22010KT 10SM CLR 00/M12 A3001 RMK AO2
KMNH 171255Z AUTO 20010KT 10SM CLR 00/M12 A3001 RMK AO2
KMNH 171235Z AUTO 21010KT 10SM CLR M02/M11 A3000 RMK AO2
KMNH 171215Z AUTO 21009KT 10SM CLR 00/M12 A3000 RMK AO2
KMNH 171155Z AUTO 20008KT 10SM CLR M01/M12 A3001 RMK AO2
KMNH 171135Z AUTO 20010KT 10SM CLR 00/M12 A3001 RMK AO2
KMNH 171115Z AUTO 21012KT 10SM CLR M02/M12 A3001 RMK AO2
KMNH 171055Z AUTO 21010KT 10SM CLR M02/M11 A3001 RMK AO2
KMNH 171035Z AUTO 21010KT 10SM CLR M02/M11 A3002 RMK AO2
KMNH 171015Z AUTO 20010KT 10SM CLR M02/M11 A3003 RMK AO2
KMNH 170955Z AUTO 19008KT 10SM CLR M03/M10 A3003 RMK AO2
KMNH 170935Z AUTO 20009KT 10SM CLR M03/M10 A3004 RMK AO2
KMNH 170915Z AUTO 20009KT 10SM CLR M03/M10 A3005 RMK AO2
KMNH 170855Z AUTO 19010KT 10SM CLR M03/M10 A3005 RMK AO2
KMNH 170835Z AUTO 19011KT 10SM CLR M03/M10 A3005 RMK AO2
KMNH 170815Z AUTO 19015KT 10SM CLR M03/M10 A3006 RMK AO2
KMNH 170755Z AUTO 19013KT 10SM CLR M02/M10 A3007 RMK AO2
KMNH 170735Z AUTO 18015G20KT 10SM CLR M02/M09 A3008 RMK AO2
KMNH 170715Z AUTO 19015KT 10SM CLR M02/M09 A3008 RMK AO2
KMNH 170655Z AUTO 19017G21KT 10SM CLR M02/M09 A3009 RMK AO2
KMNH 170635Z AUTO 19015KT 10SM CLR M02/M09 A3009 RMK AO2
KMNH 170615Z AUTO 18016KT 10SM CLR M02/M09 A3010 RMK AO2
KMNH 170555Z AUTO 18014KT 10SM CLR M01/M10 A3011 RMK AO2
KMNH 170535Z AUTO 18012KT 10SM CLR M01/M10 A3011 RMK AO2
KMNH 170515Z AUTO 18014KT 10SM CLR M02/M11 A3011 RMK AO2
KMNH 170455Z AUTO 17008KT 10SM CLR M05/M11 A3012 RMK AO2
KMNH 170435Z AUTO 17009KT 10SM CLR M03/M11 A3012 RMK AO2
KMNH 170415Z AUTO 13008KT 10SM CLR M05/M10 A3013 RMK AO2
KMNH 170355Z AUTO 18009KT 10SM CLR M05/M09 A3013 RMK AO2
KMNH 170335Z AUTO 16007KT 10SM CLR M05/M09 A3014 RMK AO2
KMNH 170315Z AUTO 16005KT 10SM CLR M05/M09 A3014 RMK AO2
KMNH 170255Z AUTO 14006KT 10SM CLR M05/M10 A3015 RMK AO2
KMNH 170235Z AUTO 12004KT 10SM CLR M04/M10 A3016 RMK AO2
KMNH 170215Z AUTO 10005KT 10SM CLR M03/M10 A3016 RMK AO2
KMNH 170155Z AUTO 15003KT 10SM CLR M03/M10 A3016 RMK AO2
KMNH 170135Z AUTO 14004KT 10SM CLR M03/M10 A3016 RMK AO2
KMNH 170115Z AUTO 11004KT 10SM CLR M02/M10 A3016 RMK AO2
KMNH 170055Z AUTO 09004KT 10SM CLR M02/M10 A3016 RMK AO2
KMNH 170035Z AUTO 09005KT 10SM CLR M01/M10 A3014 RMK AO2
KMNH 170015Z AUTO 10005KT 10SM CLR 00/M10 A3014 RMK AO2
KMNH 162355Z AUTO 09008KT 10SM CLR 00/M10 A3014 RMK AO2
KMNH 162335Z AUTO 07006KT 10SM CLR 02/M12 A3011 RMK AO2
KMNH 162315Z AUTO 05007KT 10SM CLR 03/M12 A3012 RMK AO2
KMNH 162255Z AUTO 05008KT 10SM CLR 05/M12 A3012 RMK AO2
KMNH 162235Z AUTO 06008KT 10SM CLR 09/M13 A3011 RMK AO2
KMNH 162215Z AUTO 25004KT 10SM CLR 09/M12 A3010 RMK AO2